sensor_id;sensor_type;location;lat;lon;timestamp;P1;durP1;ratioP1;P2;durP2;ratioP2
32872;SDS011;19224;52.462;16.898;2023-07-20T00:00:09;6.00;;;2.55;;
32872;SDS011;19224;52.462;16.898;2023-07-20T00:02:42;6.22;;;2.65;;
32872;SDS011;19224;52.462;16.898;2023-07-20T00:05:13;5.12;;;2.45;;
32872;SDS011;19224;52.462;16.898;2023-07-20T00:07:45;5.05;;;3.00;;
32872;SDS011;19224;52.462;16.898;2023-07-20T00:10:18;6.30;;;2.85;;
32872;SDS011;19224;52.462;16.898;2023-07-20T00:12:50;4.42;;;2.80;;
32872;SDS011;19224;52.462;16.898;2023-07-20T00:15:23;4.17;;;2.70;;
32872;SDS011;19224;52.462;16.898;2023-07-20T00:17:53;5.33;;;2.90;;
32872;SDS011;19224;52.462;16.898;2023-07-20T00:20:26;4.47;;;3.00;;
32872;SDS011;19224;52.462;16.898;2023-07-20T00:22:59;9.33;;;2.90;;
32872;SDS011;19224;52.462;16.898;2023-07-20T00:25:30;5.95;;;2.70;;
32872;SDS011;19224;52.462;16.898;2023-07-20T00:28:04;5.87;;;2.75;;
32872;SDS011;19224;52.462;16.898;2023-07-20T00:30:38;8.55;;;2.70;;
32872;SDS011;19224;52.462;16.898;2023-07-20T00:33:10;6.20;;;2.80;;
32872;SDS011;19224;52.462;16.898;2023-07-20T00:35:41;5.53;;;2.80;;
32872;SDS011;19224;52.462;16.898;2023-07-20T00:38:16;7.12;;;2.87;;
32872;SDS011;19224;52.462;16.898;2023-07-20T00:40:47;8.13;;;2.77;;
32872;SDS011;19224;52.462;16.898;2023-07-20T00:43:18;5.25;;;2.80;;
32872;SDS011;19224;52.462;16.898;2023-07-20T00:45:50;5.37;;;2.80;;
32872;SDS011;19224;52.462;16.898;2023-07-20T00:48:25;4.97;;;2.80;;
32872;SDS011;19224;52.462;16.898;2023-07-20T00:50:56;7.37;;;2.87;;
32872;SDS011;19224;52.462;16.898;2023-07-20T00:53:29;4.30;;;2.87;;
32872;SDS011;19224;52.462;16.898;2023-07-20T00:56:00;4.60;;;2.90;;
32872;SDS011;19224;52.462;16.898;2023-07-20T00:58:31;8.25;;;3.05;;
32872;SDS011;19224;52.462;16.898;2023-07-20T01:01:05;7.08;;;3.22;;
32872;SDS011;19224;52.462;16.898;2023-07-20T01:03:38;6.87;;;3.52;;
32872;SDS011;19224;52.462;16.898;2023-07-20T01:09:23;6.08;;;3.40;;
32872;SDS011;19224;52.462;16.898;2023-07-20T01:12:00;9.30;;;3.30;;
32872;SDS011;19224;52.462;16.898;2023-07-20T01:14:51;7.45;;;3.50;;
32872;SDS011;19224;52.462;16.898;2023-07-20T01:17:41;7.17;;;3.62;;
32872;SDS011;19224;52.462;16.898;2023-07-20T01:20:14;6.67;;;3.22;;
32872;SDS011;19224;52.462;16.898;2023-07-20T01:22:55;7.08;;;3.17;;
32872;SDS011;19224;52.462;16.898;2023-07-20T01:26:12;9.93;;;2.92;;
32872;SDS011;19224;52.462;16.898;2023-07-20T01:32:27;8.23;;;3.55;;
32872;SDS011;19224;52.462;16.898;2023-07-20T01:35:01;6.70;;;3.58;;
32872;SDS011;19224;52.462;16.898;2023-07-20T01:37:38;10.03;;;3.35;;
32872;SDS011;19224;52.462;16.898;2023-07-20T01:40:15;5.85;;;3.50;;
32872;SDS011;19224;52.462;16.898;2023-07-20T01:42:52;8.35;;;3.05;;
32872;SDS011;19224;52.462;16.898;2023-07-20T01:45:25;6.47;;;3.25;;
32872;SDS011;19224;52.462;16.898;2023-07-20T01:47:56;7.22;;;3.40;;
32872;SDS011;19224;52.462;16.898;2023-07-20T01:50:32;5.15;;;3.22;;
32872;SDS011;19224;52.462;16.898;2023-07-20T01:53:05;7.08;;;3.15;;
32872;SDS011;19224;52.462;16.898;2023-07-20T01:55:38;6.33;;;3.37;;
32872;SDS011;19224;52.462;16.898;2023-07-20T01:58:09;6.28;;;3.00;;
32872;SDS011;19224;52.462;16.898;2023-07-20T02:00:39;4.95;;;3.10;;
32872;SDS011;19224;52.462;16.898;2023-07-20T02:03:10;5.30;;;3.35;;
32872;SDS011;19224;52.462;16.898;2023-07-20T02:05:43;8.08;;;3.83;;
32872;SDS011;19224;52.462;16.898;2023-07-20T02:08:17;4.95;;;3.08;;
32872;SDS011;19224;52.462;16.898;2023-07-20T02:10:51;4.78;;;3.50;;
32872;SDS011;19224;52.462;16.898;2023-07-20T02:13:22;6.92;;;3.42;;
32872;SDS011;19224;52.462;16.898;2023-07-20T02:15:56;8.60;;;3.58;;
32872;SDS011;19224;52.462;16.898;2023-07-20T02:18:27;5.53;;;3.42;;
32872;SDS011;19224;52.462;16.898;2023-07-20T02:20:59;6.03;;;3.52;;
32872;SDS011;19224;52.462;16.898;2023-07-20T02:23:30;7.50;;;3.27;;
32872;SDS011;19224;52.462;16.898;2023-07-20T02:26:05;6.12;;;3.72;;
32872;SDS011;19224;52.462;16.898;2023-07-20T02:28:35;5.62;;;3.45;;
32872;SDS011;19224;52.462;16.898;2023-07-20T02:31:09;11.45;;;3.77;;
32872;SDS011;19224;52.462;16.898;2023-07-20T02:33:45;5.87;;;3.70;;
32872;SDS011;19224;52.462;16.898;2023-07-20T02:36:17;4.75;;;3.72;;
32872;SDS011;19224;52.462;16.898;2023-07-20T02:38:49;5.75;;;3.45;;
32872;SDS011;19224;52.462;16.898;2023-07-20T02:41:21;6.35;;;3.35;;
32872;SDS011;19224;52.462;16.898;2023-07-20T02:43:52;7.58;;;3.90;;
32872;SDS011;19224;52.462;16.898;2023-07-20T02:46:29;7.42;;;3.65;;
32872;SDS011;19224;52.462;16.898;2023-07-20T02:48:58;5.47;;;3.75;;
32872;SDS011;19224;52.462;16.898;2023-07-20T02:51:34;8.10;;;3.42;;
32872;SDS011;19224;52.462;16.898;2023-07-20T02:54:00;7.70;;;3.40;;
32872;SDS011;19224;52.462;16.898;2023-07-20T02:56:31;5.60;;;3.22;;
32872;SDS011;19224;52.462;16.898;2023-07-20T02:59:01;5.12;;;3.20;;
32872;SDS011;19224;52.462;16.898;2023-07-20T03:01:33;5.47;;;3.58;;
32872;SDS011;19224;52.462;16.898;2023-07-20T03:04:05;6.22;;;3.72;;
32872;SDS011;19224;52.462;16.898;2023-07-20T03:06:40;5.05;;;3.17;;
32872;SDS011;19224;52.462;16.898;2023-07-20T03:09:15;7.17;;;3.70;;
32872;SDS011;19224;52.462;16.898;2023-07-20T03:11:46;5.62;;;3.62;;
32872;SDS011;19224;52.462;16.898;2023-07-20T03:14:18;5.97;;;3.83;;
32872;SDS011;19224;52.462;16.898;2023-07-20T03:16:48;9.60;;;3.27;;
32872;SDS011;19224;52.462;16.898;2023-07-20T03:19:19;5.17;;;4.10;;
32872;SDS011;19224;52.462;16.898;2023-07-20T03:21:52;6.22;;;3.22;;
32872;SDS011;19224;52.462;16.898;2023-07-20T03:24:23;7.05;;;3.80;;
32872;SDS011;19224;52.462;16.898;2023-07-20T03:26:53;7.45;;;3.27;;
32872;SDS011;19224;52.462;16.898;2023-07-20T03:29:31;6.70;;;3.40;;
32872;SDS011;19224;52.462;16.898;2023-07-20T03:31:57;7.67;;;3.83;;
32872;SDS011;19224;52.462;16.898;2023-07-20T03:34:32;8.13;;;3.40;;
32872;SDS011;19224;52.462;16.898;2023-07-20T03:37:02;5.22;;;3.70;;
32872;SDS011;19224;52.462;16.898;2023-07-20T03:39:38;5.22;;;3.40;;
32872;SDS011;19224;52.462;16.898;2023-07-20T03:42:24;8.60;;;3.60;;
32872;SDS011;19224;52.462;16.898;2023-07-20T03:44:48;7.20;;;3.72;;
32872;SDS011;19224;52.462;16.898;2023-07-20T03:47:19;6.95;;;3.30;;
32872;SDS011;19224;52.462;16.898;2023-07-20T03:49:49;7.75;;;3.52;;
32872;SDS011;19224;52.462;16.898;2023-07-20T03:52:22;8.70;;;3.85;;
32872;SDS011;19224;52.462;16.898;2023-07-20T03:54:52;6.80;;;3.55;;
32872;SDS011;19224;52.462;16.898;2023-07-20T03:57:31;6.80;;;3.50;;
32872;SDS011;19224;52.462;16.898;2023-07-20T04:00:04;5.90;;;3.62;;
32872;SDS011;19224;52.462;16.898;2023-07-20T04:02:38;7.30;;;3.95;;
32872;SDS011;19224;52.462;16.898;2023-07-20T04:05:08;4.80;;;3.47;;
32872;SDS011;19224;52.462;16.898;2023-07-20T04:07:39;5.35;;;3.60;;
32872;SDS011;19224;52.462;16.898;2023-07-20T04:10:12;6.37;;;3.77;;
32872;SDS011;19224;52.462;16.898;2023-07-20T04:12:44;5.35;;;3.50;;
32872;SDS011;19224;52.462;16.898;2023-07-20T04:15:18;5.45;;;3.75;;
32872;SDS011;19224;52.462;16.898;2023-07-20T04:17:49;5.58;;;3.35;;
32872;SDS011;19224;52.462;16.898;2023-07-20T04:20:22;8.75;;;3.75;;
32872;SDS011;19224;52.462;16.898;2023-07-20T04:22:53;3.95;;;3.55;;
32872;SDS011;19224;52.462;16.898;2023-07-20T04:25:23;8.18;;;3.80;;
32872;SDS011;19224;52.462;16.898;2023-07-20T04:27:53;6.72;;;3.87;;
32872;SDS011;19224;52.462;16.898;2023-07-20T04:30:23;5.70;;;3.77;;
32872;SDS011;19224;52.462;16.898;2023-07-20T04:32:58;7.37;;;4.78;;
32872;SDS011;19224;52.462;16.898;2023-07-20T04:35:49;8.18;;;4.60;;
32872;SDS011;19224;52.462;16.898;2023-07-20T04:38:27;5.33;;;4.12;;
32872;SDS011;19224;52.462;16.898;2023-07-20T04:41:03;10.43;;;4.15;;
32872;SDS011;19224;52.462;16.898;2023-07-20T04:43:35;7.53;;;3.83;;
32872;SDS011;19224;52.462;16.898;2023-07-20T04:46:07;8.35;;;4.42;;
32872;SDS011;19224;52.462;16.898;2023-07-20T04:48:39;12.50;;;4.65;;
32872;SDS011;19224;52.462;16.898;2023-07-20T04:51:12;12.33;;;4.75;;
32872;SDS011;19224;52.462;16.898;2023-07-20T04:53:42;9.25;;;4.62;;
32872;SDS011;19224;52.462;16.898;2023-07-20T04:56:13;10.78;;;3.92;;
32872;SDS011;19224;52.462;16.898;2023-07-20T04:58:43;12.18;;;4.20;;
32872;SDS011;19224;52.462;16.898;2023-07-20T05:01:14;8.50;;;4.47;;
32872;SDS011;19224;52.462;16.898;2023-07-20T05:03:46;7.42;;;4.15;;
32872;SDS011;19224;52.462;16.898;2023-07-20T05:06:18;11.12;;;4.35;;
32872;SDS011;19224;52.462;16.898;2023-07-20T05:08:51;11.38;;;4.53;;
32872;SDS011;19224;52.462;16.898;2023-07-20T05:11:21;9.90;;;4.08;;
32872;SDS011;19224;52.462;16.898;2023-07-20T05:13:51;10.98;;;4.40;;
32872;SDS011;19224;52.462;16.898;2023-07-20T05:16:22;7.17;;;4.30;;
32872;SDS011;19224;52.462;16.898;2023-07-20T05:18:52;13.28;;;5.15;;
32872;SDS011;19224;52.462;16.898;2023-07-20T05:21:24;12.18;;;4.35;;
32872;SDS011;19224;52.462;16.898;2023-07-20T05:23:54;8.68;;;4.37;;
32872;SDS011;19224;52.462;16.898;2023-07-20T05:26:25;8.90;;;4.58;;
32872;SDS011;19224;52.462;16.898;2023-07-20T05:28:57;14.50;;;4.62;;
32872;SDS011;19224;52.462;16.898;2023-07-20T05:31:27;7.45;;;4.10;;
32872;SDS011;19224;52.462;16.898;2023-07-20T05:33:59;11.40;;;3.85;;
32872;SDS011;19224;52.462;16.898;2023-07-20T05:36:34;5.72;;;3.62;;
32872;SDS011;19224;52.462;16.898;2023-07-20T05:39:08;9.38;;;3.72;;
32872;SDS011;19224;52.462;16.898;2023-07-20T05:41:40;14.20;;;4.37;;
32872;SDS011;19224;52.462;16.898;2023-07-20T05:44:12;14.20;;;4.35;;
32872;SDS011;19224;52.462;16.898;2023-07-20T05:46:45;20.65;;;4.70;;
32872;SDS011;19224;52.462;16.898;2023-07-20T05:49:15;8.33;;;4.20;;
32872;SDS011;19224;52.462;16.898;2023-07-20T05:51:48;11.28;;;4.05;;
32872;SDS011;19224;52.462;16.898;2023-07-20T05:54:21;7.87;;;4.20;;
32872;SDS011;19224;52.462;16.898;2023-07-20T05:56:56;12.93;;;4.33;;
32872;SDS011;19224;52.462;16.898;2023-07-20T05:59:27;8.93;;;4.50;;
32872;SDS011;19224;52.462;16.898;2023-07-20T06:01:58;5.15;;;3.33;;
32872;SDS011;19224;52.462;16.898;2023-07-20T06:04:28;9.05;;;3.65;;
32872;SDS011;19224;52.462;16.898;2023-07-20T06:06:58;6.03;;;3.65;;
32872;SDS011;19224;52.462;16.898;2023-07-20T06:09:29;5.87;;;3.10;;
32872;SDS011;19224;52.462;16.898;2023-07-20T06:12:04;6.65;;;3.67;;
32872;SDS011;19224;52.462;16.898;2023-07-20T06:14:35;6.35;;;3.65;;
32872;SDS011;19224;52.462;16.898;2023-07-20T06:17:06;6.67;;;3.17;;
32872;SDS011;19224;52.462;16.898;2023-07-20T06:19:36;5.37;;;2.60;;
32872;SDS011;19224;52.462;16.898;2023-07-20T06:22:06;5.50;;;2.80;;
32872;SDS011;19224;52.462;16.898;2023-07-20T06:24:37;7.35;;;2.47;;
32872;SDS011;19224;52.462;16.898;2023-07-20T06:27:07;3.55;;;2.15;;
32872;SDS011;19224;52.462;16.898;2023-07-20T06:29:38;3.37;;;2.15;;
32872;SDS011;19224;52.462;16.898;2023-07-20T06:32:10;5.47;;;2.80;;
32872;SDS011;19224;52.462;16.898;2023-07-20T06:34:41;3.80;;;2.30;;
32872;SDS011;19224;52.462;16.898;2023-07-20T06:37:13;2.77;;;1.90;;
32872;SDS011;19224;52.462;16.898;2023-07-20T06:39:43;4.75;;;2.37;;
32872;SDS011;19224;52.462;16.898;2023-07-20T06:42:13;4.20;;;2.10;;
32872;SDS011;19224;52.462;16.898;2023-07-20T06:44:44;3.98;;;1.95;;
32872;SDS011;19224;52.462;16.898;2023-07-20T06:47:16;4.28;;;2.22;;
32872;SDS011;19224;52.462;16.898;2023-07-20T06:49:47;4.97;;;2.37;;
32872;SDS011;19224;52.462;16.898;2023-07-20T06:52:17;2.95;;;2.02;;
32872;SDS011;19224;52.462;16.898;2023-07-20T06:54:47;3.25;;;1.95;;
32872;SDS011;19224;52.462;16.898;2023-07-20T06:57:18;3.90;;;1.98;;
32872;SDS011;19224;52.462;16.898;2023-07-20T06:59:53;5.87;;;2.40;;
32872;SDS011;19224;52.462;16.898;2023-07-20T07:02:21;3.42;;;1.87;;
32872;SDS011;19224;52.462;16.898;2023-07-20T07:04:56;5.25;;;1.95;;
32872;SDS011;19224;52.462;16.898;2023-07-20T07:07:31;3.65;;;2.20;;
32872;SDS011;19224;52.462;16.898;2023-07-20T07:10:06;5.80;;;2.05;;
32872;SDS011;19224;52.462;16.898;2023-07-20T07:12:39;4.17;;;1.50;;
32872;SDS011;19224;52.462;16.898;2023-07-20T07:15:14;6.95;;;1.90;;
32872;SDS011;19224;52.462;16.898;2023-07-20T07:17:44;10.72;;;2.05;;
32872;SDS011;19224;52.462;16.898;2023-07-20T07:20:17;2.30;;;1.70;;
32872;SDS011;19224;52.462;16.898;2023-07-20T07:22:49;6.15;;;1.90;;
32872;SDS011;19224;52.462;16.898;2023-07-20T07:25:20;3.70;;;1.67;;
32872;SDS011;19224;52.462;16.898;2023-07-20T07:27:53;3.22;;;1.70;;
32872;SDS011;19224;52.462;16.898;2023-07-20T07:30:26;4.22;;;1.70;;
32872;SDS011;19224;52.462;16.898;2023-07-20T07:32:56;4.50;;;1.65;;
32872;SDS011;19224;52.462;16.898;2023-07-20T07:35:28;7.60;;;1.85;;
32872;SDS011;19224;52.462;16.898;2023-07-20T07:37:58;3.35;;;1.87;;
32872;SDS011;19224;52.462;16.898;2023-07-20T07:40:29;4.62;;;2.10;;
32872;SDS011;19224;52.462;16.898;2023-07-20T07:43:05;2.45;;;1.80;;
32872;SDS011;19224;52.462;16.898;2023-07-20T07:45:40;3.65;;;1.80;;
32872;SDS011;19224;52.462;16.898;2023-07-20T07:48:10;3.37;;;2.02;;
32872;SDS011;19224;52.462;16.898;2023-07-20T07:50:48;10.18;;;2.20;;
32872;SDS011;19224;52.462;16.898;2023-07-20T07:53:24;4.10;;;1.92;;
32872;SDS011;19224;52.462;16.898;2023-07-20T07:55:54;3.45;;;1.90;;
32872;SDS011;19224;52.462;16.898;2023-07-20T07:58:26;3.12;;;1.67;;
32872;SDS011;19224;52.462;16.898;2023-07-20T08:01:06;2.27;;;1.50;;
32872;SDS011;19224;52.462;16.898;2023-07-20T08:03:40;5.20;;;1.75;;
32872;SDS011;19224;52.462;16.898;2023-07-20T08:06:11;3.30;;;1.60;;
32872;SDS011;19224;52.462;16.898;2023-07-20T08:08:42;2.37;;;1.40;;
32872;SDS011;19224;52.462;16.898;2023-07-20T08:11:13;2.83;;;1.65;;
32872;SDS011;19224;52.462;16.898;2023-07-20T08:13:45;2.67;;;1.45;;
32872;SDS011;19224;52.462;16.898;2023-07-20T08:16:17;3.00;;;1.50;;
32872;SDS011;19224;52.462;16.898;2023-07-20T08:18:47;5.05;;;2.02;;
32872;SDS011;19224;52.462;16.898;2023-07-20T08:21:18;2.35;;;1.40;;
32872;SDS011;19224;52.462;16.898;2023-07-20T08:23:50;3.33;;;1.50;;
32872;SDS011;19224;52.462;16.898;2023-07-20T08:26:23;3.77;;;1.90;;
32872;SDS011;19224;52.462;16.898;2023-07-20T08:28:53;3.80;;;2.00;;
32872;SDS011;19224;52.462;16.898;2023-07-20T08:31:28;3.70;;;1.70;;
32872;SDS011;19224;52.462;16.898;2023-07-20T08:33:58;2.75;;;1.22;;
32872;SDS011;19224;52.462;16.898;2023-07-20T08:36:31;7.10;;;2.08;;
32872;SDS011;19224;52.462;16.898;2023-07-20T08:39:01;5.00;;;2.20;;
32872;SDS011;19224;52.462;16.898;2023-07-20T08:41:31;4.45;;;1.80;;
32872;SDS011;19224;52.462;16.898;2023-07-20T08:44:07;2.98;;;1.77;;
32872;SDS011;19224;52.462;16.898;2023-07-20T08:46:41;6.20;;;2.00;;
32872;SDS011;19224;52.462;16.898;2023-07-20T08:49:13;5.65;;;1.57;;
32872;SDS011;19224;52.462;16.898;2023-07-20T08:51:47;6.37;;;1.98;;
32872;SDS011;19224;52.462;16.898;2023-07-20T08:54:19;7.05;;;2.20;;
32872;SDS011;19224;52.462;16.898;2023-07-20T08:56:50;5.78;;;2.35;;
32872;SDS011;19224;52.462;16.898;2023-07-20T08:59:25;6.42;;;2.33;;
32872;SDS011;19224;52.462;16.898;2023-07-20T09:01:58;5.60;;;3.10;;
32872;SDS011;19224;52.462;16.898;2023-07-20T09:04:31;7.12;;;3.15;;
32872;SDS011;19224;52.462;16.898;2023-07-20T09:07:02;3.75;;;2.47;;
32872;SDS011;19224;52.462;16.898;2023-07-20T09:09:33;4.25;;;2.12;;
32872;SDS011;19224;52.462;16.898;2023-07-20T09:12:05;2.37;;;1.95;;
32872;SDS011;19224;52.462;16.898;2023-07-20T09:14:37;6.10;;;2.10;;
32872;SDS011;19224;52.462;16.898;2023-07-20T09:17:07;9.53;;;2.05;;
32872;SDS011;19224;52.462;16.898;2023-07-20T09:19:47;9.18;;;2.25;;
32872;SDS011;19224;52.462;16.898;2023-07-20T09:22:17;3.98;;;1.98;;
32872;SDS011;19224;52.462;16.898;2023-07-20T09:24:48;9.20;;;2.50;;
32872;SDS011;19224;52.462;16.898;2023-07-20T09:27:21;8.40;;;2.17;;
32872;SDS011;19224;52.462;16.898;2023-07-20T09:29:54;5.62;;;2.00;;
32872;SDS011;19224;52.462;16.898;2023-07-20T09:32:30;5.20;;;1.80;;
32872;SDS011;19224;52.462;16.898;2023-07-20T09:35:02;5.95;;;1.60;;
32872;SDS011;19224;52.462;16.898;2023-07-20T09:37:35;1.52;;;0.90;;
32872;SDS011;19224;52.462;16.898;2023-07-20T09:40:06;2.62;;;0.95;;
32872;SDS011;19224;52.462;16.898;2023-07-20T09:42:37;2.65;;;0.70;;
32872;SDS011;19224;52.462;16.898;2023-07-20T09:45:08;4.50;;;1.07;;
32872;SDS011;19224;52.462;16.898;2023-07-20T09:47:39;4.60;;;1.30;;
32872;SDS011;19224;52.462;16.898;2023-07-20T09:50:13;2.75;;;1.20;;
32872;SDS011;19224;52.462;16.898;2023-07-20T09:52:43;3.00;;;1.35;;
32872;SDS011;19224;52.462;16.898;2023-07-20T09:55:13;1.92;;;1.17;;
32872;SDS011;19224;52.462;16.898;2023-07-20T09:57:45;4.05;;;1.82;;
32872;SDS011;19224;52.462;16.898;2023-07-20T10:00:16;2.37;;;1.75;;
32872;SDS011;19224;52.462;16.898;2023-07-20T10:02:58;4.92;;;2.40;;
32872;SDS011;19224;52.462;16.898;2023-07-20T10:05:43;2.55;;;1.30;;
32872;SDS011;19224;52.462;16.898;2023-07-20T10:08:18;4.22;;;1.57;;
32872;SDS011;19224;52.462;16.898;2023-07-20T10:10:46;2.67;;;1.60;;
32872;SDS011;19224;52.462;16.898;2023-07-20T10:13:18;2.65;;;1.32;;
32872;SDS011;19224;52.462;16.898;2023-07-20T10:15:56;2.95;;;1.50;;
32872;SDS011;19224;52.462;16.898;2023-07-20T10:21:22;3.05;;;1.50;;
32872;SDS011;19224;52.462;16.898;2023-07-20T10:23:54;4.17;;;1.50;;
32872;SDS011;19224;52.462;16.898;2023-07-20T10:26:29;3.00;;;1.45;;
32872;SDS011;19224;52.462;16.898;2023-07-20T10:29:02;2.17;;;1.50;;
32872;SDS011;19224;52.462;16.898;2023-07-20T10:31:34;3.87;;;1.98;;
32872;SDS011;19224;52.462;16.898;2023-07-20T10:34:06;2.15;;;1.80;;
32872;SDS011;19224;52.462;16.898;2023-07-20T10:36:43;3.55;;;2.20;;
32872;SDS011;19224;52.462;16.898;2023-07-20T10:39:27;4.15;;;1.70;;
32872;SDS011;19224;52.462;16.898;2023-07-20T10:42:08;3.65;;;2.25;;
32872;SDS011;19224;52.462;16.898;2023-07-20T10:44:39;3.00;;;2.33;;
32872;SDS011;19224;52.462;16.898;2023-07-20T10:47:12;5.20;;;2.33;;
32872;SDS011;19224;52.462;16.898;2023-07-20T10:50:01;2.12;;;1.60;;
32872;SDS011;19224;52.462;16.898;2023-07-20T10:52:43;3.40;;;1.67;;
32872;SDS011;19224;52.462;16.898;2023-07-20T10:55:20;2.65;;;1.50;;
32872;SDS011;19224;52.462;16.898;2023-07-20T10:58:05;2.05;;;1.30;;
32872;SDS011;19224;52.462;16.898;2023-07-20T11:00:58;2.50;;;1.52;;
32872;SDS011;19224;52.462;16.898;2023-07-20T11:03:37;3.80;;;1.65;;
32872;SDS011;19224;52.462;16.898;2023-07-20T11:09:07;9.73;;;2.05;;
32872;SDS011;19224;52.462;16.898;2023-07-20T11:11:42;3.27;;;1.20;;
32872;SDS011;19224;52.462;16.898;2023-07-20T11:14:22;3.10;;;1.15;;
32872;SDS011;19224;52.462;16.898;2023-07-20T11:16:59;1.77;;;1.17;;
32872;SDS011;19224;52.462;16.898;2023-07-20T11:19:34;4.40;;;1.77;;
32872;SDS011;19224;52.462;16.898;2023-07-20T11:22:04;1.60;;;1.20;;
32872;SDS011;19224;52.462;16.898;2023-07-20T11:24:44;5.22;;;1.30;;
32872;SDS011;19224;52.462;16.898;2023-07-20T11:27:12;5.80;;;1.37;;
32872;SDS011;19224;52.462;16.898;2023-07-20T11:29:45;2.70;;;1.20;;
32872;SDS011;19224;52.462;16.898;2023-07-20T11:32:22;3.05;;;1.20;;
32872;SDS011;19224;52.462;16.898;2023-07-20T11:34:53;2.25;;;0.80;;
32872;SDS011;19224;52.462;16.898;2023-07-20T11:37:30;1.22;;;0.90;;
32872;SDS011;19224;52.462;16.898;2023-07-20T11:40:00;3.30;;;0.70;;
32872;SDS011;19224;52.462;16.898;2023-07-20T11:42:32;2.00;;;0.72;;
32872;SDS011;19224;52.462;16.898;2023-07-20T11:45:03;1.57;;;0.68;;
32872;SDS011;19224;52.462;16.898;2023-07-20T11:47:35;4.40;;;0.65;;
32872;SDS011;19224;52.462;16.898;2023-07-20T11:50:12;0.42;;;0.40;;
32872;SDS011;19224;52.462;16.898;2023-07-20T11:52:44;0.70;;;0.50;;
32872;SDS011;19224;52.462;16.898;2023-07-20T11:55:14;1.52;;;0.57;;
32872;SDS011;19224;52.462;16.898;2023-07-20T11:58:06;2.55;;;0.65;;
32872;SDS011;19224;52.462;16.898;2023-07-20T12:00:38;1.57;;;0.60;;
32872;SDS011;19224;52.462;16.898;2023-07-20T12:03:11;7.60;;;1.00;;
32872;SDS011;19224;52.462;16.898;2023-07-20T12:05:43;0.82;;;0.70;;
32872;SDS011;19224;52.462;16.898;2023-07-20T12:08:14;3.37;;;0.72;;
32872;SDS011;19224;52.462;16.898;2023-07-20T12:10:45;4.80;;;0.98;;
32872;SDS011;19224;52.462;16.898;2023-07-20T12:13:17;1.27;;;0.60;;
32872;SDS011;19224;52.462;16.898;2023-07-20T12:15:50;5.15;;;0.70;;
32872;SDS011;19224;52.462;16.898;2023-07-20T12:18:34;4.53;;;0.80;;
32872;SDS011;19224;52.462;16.898;2023-07-20T12:21:00;1.92;;;0.70;;
32872;SDS011;19224;52.462;16.898;2023-07-20T12:23:35;0.80;;;0.72;;
32872;SDS011;19224;52.462;16.898;2023-07-20T12:26:10;2.98;;;0.70;;
32872;SDS011;19224;52.462;16.898;2023-07-20T12:28:48;3.62;;;0.70;;
32872;SDS011;19224;52.462;16.898;2023-07-20T12:31:17;1.57;;;0.60;;
32872;SDS011;19224;52.462;16.898;2023-07-20T12:33:56;4.28;;;0.70;;
32872;SDS011;19224;52.462;16.898;2023-07-20T12:36:27;2.95;;;0.80;;
32872;SDS011;19224;52.462;16.898;2023-07-20T12:38:59;1.35;;;0.70;;
32872;SDS011;19224;52.462;16.898;2023-07-20T12:41:29;3.02;;;0.80;;
32872;SDS011;19224;52.462;16.898;2023-07-20T12:43:59;1.40;;;0.88;;
32872;SDS011;19224;52.462;16.898;2023-07-20T12:46:30;0.70;;;0.70;;
32872;SDS011;19224;52.462;16.898;2023-07-20T12:49:03;0.93;;;0.60;;
32872;SDS011;19224;52.462;16.898;2023-07-20T12:51:34;1.27;;;0.57;;
32872;SDS011;19224;52.462;16.898;2023-07-20T12:54:08;0.60;;;0.60;;
32872;SDS011;19224;52.462;16.898;2023-07-20T12:56:38;3.30;;;0.40;;
32872;SDS011;19224;52.462;16.898;2023-07-20T12:59:10;1.65;;;0.45;;
32872;SDS011;19224;52.462;16.898;2023-07-20T13:01:40;2.05;;;0.50;;
32872;SDS011;19224;52.462;16.898;2023-07-20T13:04:11;0.40;;;0.40;;
32872;SDS011;19224;52.462;16.898;2023-07-20T13:06:46;1.40;;;0.60;;
32872;SDS011;19224;52.462;16.898;2023-07-20T13:09:16;0.40;;;0.40;;
32872;SDS011;19224;52.462;16.898;2023-07-20T13:11:46;0.72;;;0.62;;
32872;SDS011;19224;52.462;16.898;2023-07-20T13:14:21;3.37;;;0.98;;
32872;SDS011;19224;52.462;16.898;2023-07-20T13:16:51;1.12;;;0.70;;
32872;SDS011;19224;52.462;16.898;2023-07-20T13:19:23;0.70;;;0.70;;
32872;SDS011;19224;52.462;16.898;2023-07-20T13:21:55;2.70;;;0.70;;
32872;SDS011;19224;52.462;16.898;2023-07-20T13:24:26;1.42;;;0.70;;
32872;SDS011;19224;52.462;16.898;2023-07-20T13:26:57;3.22;;;1.72;;
32872;SDS011;19224;52.462;16.898;2023-07-20T13:29:29;0.70;;;0.70;;
32872;SDS011;19224;52.462;16.898;2023-07-20T13:32:00;0.70;;;0.70;;
32872;SDS011;19224;52.462;16.898;2023-07-20T13:34:33;4.25;;;0.90;;
32872;SDS011;19224;52.462;16.898;2023-07-20T13:37:05;1.87;;;0.62;;
32872;SDS011;19224;52.462;16.898;2023-07-20T13:39:38;3.35;;;0.80;;
32872;SDS011;19224;52.462;16.898;2023-07-20T13:42:08;1.37;;;0.93;;
32872;SDS011;19224;52.462;16.898;2023-07-20T13:44:44;3.47;;;0.82;;
32872;SDS011;19224;52.462;16.898;2023-07-20T13:47:41;1.15;;;0.70;;
32872;SDS011;19224;52.462;16.898;2023-07-20T13:50:11;0.72;;;0.60;;
32872;SDS011;19224;52.462;16.898;2023-07-20T13:52:44;0.70;;;0.70;;
32872;SDS011;19224;52.462;16.898;2023-07-20T13:55:14;3.67;;;0.70;;
32872;SDS011;19224;52.462;16.898;2023-07-20T13:57:45;1.62;;;0.90;;
32872;SDS011;19224;52.462;16.898;2023-07-20T14:00:17;2.83;;;0.80;;
32872;SDS011;19224;52.462;16.898;2023-07-20T14:02:47;3.22;;;1.07;;
32872;SDS011;19224;52.462;16.898;2023-07-20T14:05:17;0.90;;;0.70;;
32872;SDS011;19224;52.462;16.898;2023-07-20T14:07:48;1.92;;;0.80;;
32872;SDS011;19224;52.462;16.898;2023-07-20T14:10:18;1.15;;;0.85;;
32872;SDS011;19224;52.462;16.898;2023-07-20T14:12:48;1.50;;;0.90;;
32872;SDS011;19224;52.462;16.898;2023-07-20T14:15:19;0.70;;;0.70;;
32872;SDS011;19224;52.462;16.898;2023-07-20T14:17:53;0.72;;;0.62;;
32872;SDS011;19224;52.462;16.898;2023-07-20T14:20:24;0.93;;;0.70;;
32872;SDS011;19224;52.462;16.898;2023-07-20T14:22:54;0.60;;;0.50;;
32872;SDS011;19224;52.462;16.898;2023-07-20T14:25:24;0.53;;;0.50;;
32872;SDS011;19224;52.462;16.898;2023-07-20T14:28:00;2.55;;;1.10;;
32872;SDS011;19224;52.462;16.898;2023-07-20T14:30:31;1.62;;;0.80;;
32872;SDS011;19224;52.462;16.898;2023-07-20T14:33:01;2.25;;;0.70;;
32872;SDS011;19224;52.462;16.898;2023-07-20T14:35:31;0.62;;;0.62;;
32872;SDS011;19224;52.462;16.898;2023-07-20T14:38:03;2.08;;;0.70;;
32872;SDS011;19224;52.462;16.898;2023-07-20T14:40:33;2.58;;;0.80;;
32872;SDS011;19224;52.462;16.898;2023-07-20T14:43:03;0.60;;;0.60;;
32872;SDS011;19224;52.462;16.898;2023-07-20T14:45:33;2.10;;;0.60;;
32872;SDS011;19224;52.462;16.898;2023-07-20T14:48:05;1.17;;;0.90;;
32872;SDS011;19224;52.462;16.898;2023-07-20T14:50:36;0.45;;;0.45;;
32872;SDS011;19224;52.462;16.898;2023-07-20T14:53:06;1.55;;;0.30;;
32872;SDS011;19224;52.462;16.898;2023-07-20T14:55:37;1.70;;;0.40;;
32872;SDS011;19224;52.462;16.898;2023-07-20T14:58:09;0.30;;;0.30;;
32872;SDS011;19224;52.462;16.898;2023-07-20T15:00:39;0.42;;;0.40;;
32872;SDS011;19224;52.462;16.898;2023-07-20T15:03:12;1.55;;;0.35;;
32872;SDS011;19224;52.462;16.898;2023-07-20T15:05:49;1.85;;;0.30;;
32872;SDS011;19224;52.462;16.898;2023-07-20T15:08:14;1.30;;;0.85;;
32872;SDS011;19224;52.462;16.898;2023-07-20T15:10:45;1.22;;;1.12;;
32872;SDS011;19224;52.462;16.898;2023-07-20T15:13:16;2.35;;;0.33;;
32872;SDS011;19224;52.462;16.898;2023-07-20T15:15:46;1.40;;;0.50;;
32872;SDS011;19224;52.462;16.898;2023-07-20T15:18:18;0.50;;;0.40;;